Time;durP1;ratioP1;P1;durP2;ratioP2;P2;SDS_P1;SDS_P2;PMS_P1;PMS_P2;Temp;Humidity;BMP_temperature;BMP_pressure;BME280_temperature;BME280_humidity;BME280_pressure;Samples;Min_cycle;Max_cycle;Signal;HPM_P1;HPM_P2
2023/12/04 00:00:31;;;;;;;9.90;7.30;;;;;;;-7.38;100.00;100139.53;5086034;28;20211;-85
2023/12/04 00:02:57;;;;;;;11.10;7.60;;;;;;;-7.41;100.00;100139.72;5065287;28;20198;-85
2023/12/04 00:05:24;;;;;;;9.23;6.90;;;;;;;-7.42;100.00;100139.81;5074739;28;20197;-86
2023/12/04 00:07:56;;;;;;;10.10;7.10;;;;;;;-7.43;100.00;100139.00;5109237;28;20214;-86
2023/12/04 00:10:24;;;;;;;11.40;7.43;;;;;;;-7.46;100.00;100135.72;5093029;28;20207;-85
2023/12/04 00:12:51;;;;;;;9.47;7.13;;;;;;;-7.46;100.00;100135.72;5108777;28;20244;-85
2023/12/04 00:15:20;;;;;;;9.53;7.17;;;;;;;-7.53;100.00;100130.06;5099548;28;20258;-85
2023/12/04 00:17:47;;;;;;;10.67;7.80;;;;;;;-7.53;100.00;100132.66;5077762;28;20219;-86
2023/12/04 00:20:14;;;;;;;11.83;7.60;;;;;;;-7.51;100.00;100133.38;5090273;28;20204;-87
2023/12/04 00:22:41;;;;;;;10.57;7.63;;;;;;;-7.47;100.00;100140.09;5081873;28;20227;-86
2023/12/04 00:25:12;;;;;;;11.97;8.00;;;;;;;-7.44;100.00;100142.50;5091901;28;20206;-85
2023/12/04 00:27:40;;;;;;;11.90;8.13;;;;;;;-7.44;100.00;100142.50;5063078;28;20660;-86
2023/12/04 00:30:07;;;;;;;11.23;7.57;;;;;;;-7.40;100.00;100145.75;5093336;28;20207;-85
2023/12/04 00:32:35;;;;;;;11.40;7.70;;;;;;;-7.43;100.00;100133.78;5059869;28;20199;-86
2023/12/04 00:35:02;;;;;;;11.77;7.97;;;;;;;-7.44;100.00;100139.91;5101592;28;20212;-87
2023/12/04 00:37:29;;;;;;;11.03;7.23;;;;;;;-7.54;100.00;100130.97;5076247;28;20247;-86
2023/12/04 00:39:59;;;;;;;11.53;7.13;;;;;;;-7.59;100.00;100120.84;5087011;28;20192;-86
2023/12/04 00:42:29;;;;;;;11.37;7.60;;;;;;;-7.57;100.00;100134.63;5092736;28;20261;-86
2023/12/04 00:44:59;;;;;;;12.30;8.23;;;;;;;-7.59;100.00;100122.63;5068631;28;20200;-86
2023/12/04 00:47:26;;;;;;;14.73;9.23;;;;;;;-7.62;100.00;100122.81;5069081;28;20192;-87
2023/12/04 00:49:53;;;;;;;19.10;11.20;;;;;;;-7.56;100.00;100136.28;5069231;28;20205;-86
2023/12/04 00:52:23;;;;;;;19.37;12.03;;;;;;;-7.51;100.00;100127.38;5081977;28;20254;-86
2023/12/04 00:54:52;;;;;;;23.60;12.77;;;;;;;-7.52;100.00;100129.13;5090139;28;20188;-87
2023/12/04 00:57:20;;;;;;;22.33;12.33;;;;;;;-7.58;100.00;100129.50;5071202;28;20200;-86
2023/12/04 00:59:46;;;;;;;16.93;9.97;;;;;;;-7.66;100.00;100140.38;5065534;28;20852;-85
2023/12/04 01:02:13;;;;;;;18.47;10.73;;;;;;;-7.68;100.00;100138.78;5073071;28;20195;-86
2023/12/04 01:04:42;;;;;;;17.90;11.00;;;;;;;-7.73;100.00;100133.03;5076076;28;20192;-86
2023/12/04 01:07:09;;;;;;;23.57;13.10;;;;;;;-7.81;100.00;100133.50;5078385;28;20211;-84
2023/12/04 01:09:37;;;;;;;18.80;10.73;;;;;;;-8.03;100.00;100139.13;5068579;28;20219;-85
2023/12/04 01:12:04;;;;;;;14.37;8.73;;;;;;;-8.15;100.00;100142.44;5089575;28;20245;-86
2023/12/04 01:14:38;;;;;;;12.43;7.90;;;;;;;-8.18;100.00;100134.81;5099067;28;20236;-82
2023/12/04 01:17:06;;;;;;;12.63;7.97;;;;;;;-8.24;100.00;100139.53;5091914;28;20196;-84
2023/12/04 01:19:42;;;;;;;10.97;7.47;;;;;;;-8.29;100.00;100126.81;5091308;28;20218;-81
2023/12/04 01:22:12;;;;;;;10.87;7.43;;;;;;;-8.29;100.00;100134.59;5120746;28;20225;-83
2023/12/04 01:24:49;;;;;;;12.73;7.53;;;;;;;-8.33;100.00;100129.69;5088220;28;20220;-82
2023/12/04 01:27:20;;;;;;;11.50;7.50;;;;;;;-8.37;100.00;100134.25;5111552;28;20203;-83
2023/12/04 01:29:47;;;;;;;11.90;8.07;;;;;;;-8.37;100.00;100126.44;5105376;28;20223;-82
2023/12/04 01:32:15;;;;;;;11.73;8.00;;;;;;;-8.37;100.00;100133.41;5105403;28;20195;-81
2023/12/04 01:34:45;;;;;;;13.70;8.50;;;;;;;-8.32;100.00;100131.38;5136652;28;20184;-83
2023/12/04 01:37:13;;;;;;;11.67;7.67;;;;;;;-8.27;100.00;100134.53;5093600;28;20209;-83
2023/12/04 01:39:43;;;;;;;16.77;9.63;;;;;;;-8.19;100.00;100140.09;5083614;28;20265;-83
2023/12/04 01:42:12;;;;;;;20.43;11.27;;;;;;;-8.25;100.00;100140.44;5101338;28;20179;-83
2023/12/04 01:44:42;;;;;;;14.53;8.80;;;;;;;-8.29;100.00;100142.41;5100627;28;20184;-82
2023/12/04 01:47:12;;;;;;;16.53;8.00;;;;;;;-8.36;100.00;100138.53;5085170;28;20203;-82
2023/12/04 01:49:47;;;;;;;11.20;7.40;;;;;;;-8.36;100.00;100128.13;5084424;28;20180;-82
2023/12/04 01:52:14;;;;;;;13.37;7.63;;;;;;;-8.40;100.00;100131.00;5096874;28;20249;-82
2023/12/04 01:54:44;;;;;;;11.97;7.43;;;;;;;-8.43;100.00;100123.34;5096455;28;20203;-82
2023/12/04 01:57:16;;;;;;;8.27;6.57;;;;;;;-8.45;100.00;100127.81;5123874;28;20206;-82
2023/12/04 01:59:48;;;;;;;9.33;6.50;;;;;;;-8.51;100.00;100118.59;5102614;28;20242;-82
2023/12/04 02:02:16;;;;;;;11.57;6.80;;;;;;;-8.56;100.00;100110.22;5100074;28;20196;-81
2023/12/04 02:04:44;;;;;;;10.97;6.80;;;;;;;-8.56;100.00;100121.47;5087491;28;20164;-83
2023/12/04 02:07:14;;;;;;;11.50;7.63;;;;;;;-8.60;100.00;100113.94;5116192;28;20195;-82
2023/12/04 02:09:41;;;;;;;14.10;8.57;;;;;;;-8.67;100.00;100115.19;5082584;28;20212;-82
2023/12/04 02:12:11;;;;;;;12.17;7.77;;;;;;;-8.70;100.00;100108.44;5106855;28;20200;-83
2023/12/04 02:14:43;;;;;;;13.03;7.87;;;;;;;-8.79;100.00;100110.69;5099674;28;20192;-83
2023/12/04 02:17:20;;;;;;;13.97;8.00;;;;;;;-8.85;100.00;100111.03;5097975;28;20219;-82
2023/12/04 02:19:58;;;;;;;13.47;7.10;;;;;;;-8.93;100.00;100104.53;5115095;28;20220;-82
2023/12/04 02:22:41;;;;;;;10.10;6.70;;;;;;;-8.96;100.00;100098.66;5114977;28;20200;-82
2023/12/04 02:25:22;;;;;;;10.20;6.60;;;;;;;-8.99;100.00;100094.47;5108735;28;20196;-82
2023/12/04 02:28:06;;;;;;;10.20;6.33;;;;;;;-9.00;100.00;100100.56;5116611;28;20252;-81
2023/12/04 02:30:38;;;;;;;11.17;7.40;;;;;;;-9.06;100.00;100090.56;5098449;28;20176;-82
2023/12/04 02:33:32;;;;;;;12.17;7.73;;;;;;;-9.08;100.00;100092.38;5115790;28;20202;-82
2023/12/04 02:36:12;;;;;;;9.87;6.90;;;;;;;-9.09;100.00;100097.66;5115083;28;20176;-82
2023/12/04 02:38:40;;;;;;;11.93;7.10;;;;;;;-9.08;100.00;100094.13;5081557;28;20220;-82
2023/12/04 02:41:08;;;;;;;11.60;6.97;;;;;;;-9.04;100.00;100099.06;5097578;28;20204;-82
2023/12/04 02:43:38;;;;;;;11.27;7.00;;;;;;;-9.08;100.00;100091.53;5098106;28;20180;-82
2023/12/04 02:46:05;;;;;;;10.53;6.97;;;;;;;-9.09;100.00;100093.31;5117756;28;20251;-83
2023/12/04 02:48:32;;;;;;;11.77;7.23;;;;;;;-9.09;100.00;100097.66;5078181;28;20264;-82
2023/12/04 02:51:00;;;;;;;11.70;6.87;;;;;;;-9.14;100.00;100095.31;5094339;28;20197;-84
2023/12/04 02:53:35;;;;;;;11.20;6.73;;;;;;;-9.15;100.00;100091.06;5098874;28;20200;-81
2023/12/04 02:56:07;;;;;;;11.13;6.80;;;;;;;-9.18;100.00;100092.97;5097940;28;20187;-82
2023/12/04 02:58:36;;;;;;;11.13;7.00;;;;;;;-9.21;100.00;100088.78;5122565;28;20212;-83
2023/12/04 03:01:10;;;;;;;8.50;6.10;;;;;;;-9.24;100.00;100091.56;5094954;28;20202;-82
2023/12/04 03:03:40;;;;;;;9.37;6.47;;;;;;;-9.28;100.00;100103.00;5123206;28;20227;-82
2023/12/04 03:06:12;;;;;;;10.30;5.77;;;;;;;-9.33;100.00;100109.41;5085840;28;20263;-82
2023/12/04 03:08:41;;;;;;;10.40;6.67;;;;;;;-9.34;100.00;100102.53;5096314;28;20172;-82
2023/12/04 03:11:16;;;;;;;8.60;6.30;;;;;;;-9.32;100.00;100103.25;5093209;28;20192;-83
2023/12/04 03:13:55;;;;;;;9.53;6.67;;;;;;;-9.33;100.00;100099.81;5097358;28;20188;-81
2023/12/04 03:16:24;;;;;;;8.33;6.10;;;;;;;-9.31;100.00;100098.00;5079139;28;20254;-82
2023/12/04 03:18:53;;;;;;;8.37;5.93;;;;;;;-9.33;100.00;100112.81;5081253;28;20231;-81
2023/12/04 03:21:22;;;;;;;8.03;6.43;;;;;;;-9.38;100.00;100107.06;5080282;28;20252;-82
2023/12/04 03:23:51;;;;;;;8.83;6.57;;;;;;;-9.37;100.00;100108.69;5112857;28;20207;-81
2023/12/04 03:26:21;;;;;;;8.90;6.13;;;;;;;-9.36;100.00;100100.00;5096767;28;20239;-82
2023/12/04 03:28:50;;;;;;;8.47;5.83;;;;;;;-9.53;100.00;100095.75;5096099;28;20256;-82
2023/12/04 03:31:25;;;;;;;13.77;7.40;;;;;;;-9.67;100.00;100092.19;5113633;28;20168;-83
2023/12/04 03:33:57;;;;;;;10.07;6.53;;;;;;;-9.69;100.00;100091.44;5099666;28;20196;-83
2023/12/04 03:36:26;;;;;;;12.77;7.30;;;;;;;-9.68;100.00;100093.09;5083682;28;20238;-83
2023/12/04 03:38:59;;;;;;;14.73;7.40;;;;;;;-9.68;100.00;100087.91;5068323;28;20223;-83
2023/12/04 03:41:31;;;;;;;14.67;7.93;;;;;;;-9.66;100.00;100086.09;5098542;28;20192;-83
2023/12/04 03:44:06;;;;;;;14.20;7.97;;;;;;;-9.65;100.00;100091.19;5098902;28;20215;-82
2023/12/04 03:46:42;;;;;;;14.93;7.97;;;;;;;-9.63;100.00;100085.94;5099476;28;20191;-82
2023/12/04 03:49:15;;;;;;;16.80;9.30;;;;;;;-9.63;100.00;100093.69;5081554;28;20219;-82
2023/12/04 03:51:44;;;;;;;21.07;11.73;;;;;;;-9.65;100.00;100093.78;5114279;28;20231;-82
2023/12/04 03:54:17;;;;;;;21.03;11.03;;;;;;;-9.65;100.00;100087.75;5082963;28;20191;-82
2023/12/04 03:56:44;;;;;;;25.33;10.57;;;;;;;-9.60;100.00;100088.34;5080927;28;20189;-82
2023/12/04 03:59:15;;;;;;;12.67;7.57;;;;;;;-9.68;100.00;100077.56;5082294;28;20220;-82
2023/12/04 04:01:48;;;;;;;11.80;6.87;;;;;;;-9.74;100.00;100081.31;5082753;28;20585;-82
2023/12/04 04:04:26;;;;;;;13.57;7.23;;;;;;;-9.70;100.00;100074.22;5084972;28;20200;-82
2023/12/04 04:06:55;;;;;;;10.17;6.77;;;;;;;-9.73;100.00;100077.78;5083186;28;20730;-82
2023/12/04 04:09:26;;;;;;;11.90;6.70;;;;;;;-9.76;100.00;100061.56;5099040;28;20230;-83
2023/12/04 04:11:56;;;;;;;10.50;6.50;;;;;;;-9.77;100.00;100063.31;5099748;28;20188;-83
2023/12/04 04:14:30;;;;;;;8.67;6.00;;;;;;;-9.76;100.00;100065.00;5082410;28;20216;-82
2023/12/04 04:17:07;;;;;;;10.60;5.70;;;;;;;-9.77;100.00;100063.31;5089786;28;20192;-82
2023/12/04 04:19:39;;;;;;;9.07;6.17;;;;;;;-9.74;100.00;100044.16;5099981;28;20214;-83
2023/12/04 04:22:12;;;;;;;12.13;5.80;;;;;;;-9.76;100.00;100049.44;5114389;28;20192;-82
2023/12/04 04:24:40;;;;;;;8.97;5.73;;;;;;;-9.74;100.00;100059.72;5098486;28;20164;-82
2023/12/04 04:27:08;;;;;;;9.23;6.40;;;;;;;-9.74;100.00;100064.91;5114852;28;20181;-82
2023/12/04 04:29:38;;;;;;;8.30;5.50;;;;;;;-9.76;100.00;100064.16;5098842;28;20172;-82
2023/12/04 04:32:05;;;;;;;7.43;5.30;;;;;;;-9.84;100.00;100055.03;5097013;28;20185;-82
2023/12/04 04:34:33;;;;;;;8.30;5.10;;;;;;;-9.84;100.00;100054.19;5097571;28;20196;-83
2023/12/04 04:37:03;;;;;;;10.40;5.30;;;;;;;-9.87;100.00;100057.78;5080030;28;20196;-82
2023/12/04 04:39:42;;;;;;;7.63;5.67;;;;;;;-9.92;100.00;100052.00;5082691;28;20279;-82
2023/12/04 04:42:09;;;;;;;9.90;6.60;;;;;;;-9.91;100.00;100052.84;5097042;28;20200;-82
2023/12/04 04:44:37;;;;;;;10.23;6.57;;;;;;;-9.91;100.00;100058.88;5113411;28;20196;-82
2023/12/04 04:47:24;;;;;;;9.57;6.33;;;;;;;-9.95;100.00;100049.56;5097943;28;20223;-82
2023/12/04 04:49:55;;;;;;;8.20;5.87;;;;;;;-9.94;100.00;100051.25;5114082;28;20275;-82
2023/12/04 04:52:33;;;;;;;7.10;6.00;;;;;;;-9.90;100.00;100055.38;5096420;28;20228;-82
2023/12/04 04:55:06;;;;;;;10.07;6.50;;;;;;;-9.96;100.00;100058.25;5097023;28;20674;-82
2023/12/04 04:57:35;;;;;;;8.83;6.17;;;;;;;-10.02;100.00;100045.63;5111906;28;20214;-83
2023/12/04 05:00:10;;;;;;;8.13;6.37;;;;;;;-10.03;100.00;100048.31;5113303;28;20200;-82
2023/12/04 05:02:42;;;;;;;10.03;6.40;;;;;;;-10.09;100.00;100051.22;5097686;28;20274;-82
2023/12/04 05:05:14;;;;;;;8.93;6.30;;;;;;;-10.06;100.00;100040.69;5103036;28;20185;-82
2023/12/04 05:07:44;;;;;;;7.83;5.80;;;;;;;-10.08;100.00;100039.94;5110185;28;20247;-82
2023/12/04 05:10:25;;;;;;;7.87;5.97;;;;;;;-10.08;100.00;100045.13;5080055;28;20219;-82
2023/12/04 05:13:05;;;;;;;10.03;6.50;;;;;;;-10.18;100.00;100047.38;5099000;28;20279;-82
2023/12/04 05:15:33;;;;;;;9.80;6.80;;;;;;;-10.23;100.00;100049.38;5098036;28;20648;-82
2023/12/04 05:21:36;;;;;;;9.70;5.80;;;;;;;-10.29;100.00;100041.91;5103109;28;20289;-82
2023/12/04 05:27:57;;;;;;;9.37;5.20;;;;;;;-10.30;100.00;100024.69;5111351;28;20188;-83
2023/12/04 05:30:24;;;;;;;9.23;5.73;;;;;;;-10.33;100.00;100023.09;5110034;28;20303;-82
2023/12/04 05:32:53;;;;;;;8.97;5.47;;;;;;;-10.42;100.00;100020.97;5076596;28;20260;-81
2023/12/04 05:35:22;;;;;;;8.43;5.33;;;;;;;-10.42;100.00;100025.31;5076167;28;20233;-82
2023/12/04 05:37:50;;;;;;;9.53;5.27;;;;;;;-10.44;100.00;100027.97;5076376;28;20188;-82
2023/12/04 05:40:19;;;;;;;9.80;5.70;;;;;;;-10.43;100.00;100031.41;5092647;28;20212;-82
2023/12/04 05:42:54;;;;;;;10.30;5.83;;;;;;;-10.45;100.00;100028.88;5107512;28;20259;-82
2023/12/04 05:45:36;;;;;;;7.73;5.30;;;;;;;-10.48;100.00;100026.47;5094348;28;20235;-82
2023/12/04 05:48:04;;;;;;;7.27;4.90;;;;;;;-10.47;100.00;100017.78;5092545;28;20210;-82
2023/12/04 05:50:33;;;;;;;8.80;5.03;;;;;;;-10.59;100.00;100023.56;5092585;28;20208;-81
2023/12/04 05:53:01;;;;;;;8.33;5.03;;;;;;;-10.56;100.00;100012.22;5076345;28;20236;-82
2023/12/04 05:55:30;;;;;;;8.67;5.13;;;;;;;-10.58;100.00;100012.31;5075516;28;20196;-82
2023/12/04 05:58:02;;;;;;;10.03;5.27;;;;;;;-10.55;100.00;100016.50;5076494;28;20214;-82
2023/12/04 06:00:29;;;;;;;8.07;4.60;;;;;;;-10.52;100.00;100024.09;5076458;28;20189;-82
2023/12/04 06:02:56;;;;;;;8.93;5.87;;;;;;;-10.56;100.00;100014.81;5075996;28;20200;-82
2023/12/04 06:05:24;;;;;;;10.03;7.00;;;;;;;-10.59;100.00;100018.38;5092440;28;20227;-81
2023/12/04 06:07:52;;;;;;;23.40;15.13;;;;;;;-10.62;100.00;100023.72;5075577;28;20227;-82
2023/12/04 06:10:20;;;;;;;30.53;18.23;;;;;;;-10.66;100.00;100018.78;5082976;28;20208;-82
2023/12/04 06:12:51;;;;;;;26.07;16.90;;;;;;;-10.64;100.00;100029.91;5100546;28;20199;-82
2023/12/04 06:15:23;;;;;;;17.10;11.50;;;;;;;-10.67;100.00;100023.13;5081651;28;20200;-82
2023/12/04 06:17:53;;;;;;;14.07;9.30;;;;;;;-10.66;100.00;100022.22;5107374;28;20200;-82
2023/12/04 06:20:25;;;;;;;12.97;8.33;;;;;;;-10.64;100.00;100009.19;5112526;28;20192;-82
2023/12/04 06:22:52;;;;;;;11.20;7.07;;;;;;;-10.65;100.00;100002.34;5086492;28;20204;-82
2023/12/04 06:25:22;;;;;;;28.53;19.90;;;;;;;-10.62;100.00;100012.53;5106925;28;20200;-81
2023/12/04 06:27:53;;;;;;;24.43;16.87;;;;;;;-10.63;100.00;100003.09;5082062;28;20207;-82
2023/12/04 06:30:20;;;;;;;22.90;16.53;;;;;;;-10.65;100.00;100007.53;5106473;28;20231;-82
2023/12/04 06:32:51;;;;;;;18.23;13.30;;;;;;;-10.68;100.00;100013.69;5097612;28;20205;-82
2023/12/04 06:35:22;;;;;;;13.00;9.63;;;;;;;-10.67;100.00;100006.75;5074930;28;20231;-82
2023/12/04 06:37:54;;;;;;;13.47;9.30;;;;;;;-10.61;100.00;100003.84;5084026;28;20259;-82
2023/12/04 06:40:24;;;;;;;11.33;8.20;;;;;;;-10.63;100.00;100008.25;5083739;28;20212;-81
2023/12/04 06:42:51;;;;;;;11.73;7.40;;;;;;;-10.56;100.00;100012.22;5110196;28;20187;-81
2023/12/04 06:45:20;;;;;;;10.93;7.30;;;;;;;-10.58;100.00;99999.34;5077521;28;20199;-82
2023/12/04 06:47:51;;;;;;;12.77;7.00;;;;;;;-10.52;100.00;100011.16;5073667;28;20267;-82
2023/12/04 06:50:19;;;;;;;9.13;5.97;;;;;;;-10.50;100.00;100004.16;5094499;28;20242;-82
2023/12/04 06:52:47;;;;;;;7.40;5.40;;;;;;;-10.45;100.00;99992.63;5089735;28;20247;-81
2023/12/04 06:55:16;;;;;;;9.70;6.37;;;;;;;-10.40;100.00;100000.16;5113051;28;20199;-82
2023/12/04 06:57:44;;;;;;;9.43;6.10;;;;;;;-10.38;100.00;99996.59;5090841;28;20222;-82
2023/12/04 07:00:20;;;;;;;8.33;5.07;;;;;;;-10.34;100.00;99997.25;5075565;28;20294;-82
2023/12/04 07:02:50;;;;;;;6.63;5.33;;;;;;;-10.27;100.00;99996.03;5098914;28;20223;-82
2023/12/04 07:05:19;;;;;;;7.03;5.20;;;;;;;-10.18;100.00;99994.72;5096332;28;20184;-82
2023/12/04 07:07:47;;;;;;;7.37;5.00;;;;;;;-10.14;100.00;99985.81;5076682;28;20267;-82
2023/12/04 07:10:16;;;;;;;7.37;5.37;;;;;;;-10.14;100.00;99985.81;5104769;28;20207;-81
2023/12/04 07:13:02;;;;;;;9.07;5.40;;;;;;;-10.18;100.00;99977.41;5103688;28;20197;-82
2023/12/04 07:15:36;;;;;;;8.83;5.30;;;;;;;-10.10;100.00;99971.78;5104445;28;20207;-82
2023/12/04 07:18:03;;;;;;;7.17;4.73;;;;;;;-10.05;100.00;99972.38;5072433;28;20210;-81
2023/12/04 07:20:38;;;;;;;6.77;4.50;;;;;;;-9.99;100.00;99982.44;5104553;28;20179;-81
2023/12/04 07:23:07;;;;;;;8.37;4.97;;;;;;;-9.87;100.00;99981.75;5087737;28;20204;-82
2023/12/04 07:25:38;;;;;;;6.80;4.70;;;;;;;-9.81;100.00;99968.47;5073854;28;20192;-82
2023/12/04 07:28:08;;;;;;;9.83;4.63;;;;;;;-9.73;100.00;99961.09;5091508;28;20192;-81
2023/12/04 07:30:36;;;;;;;6.20;4.43;;;;;;;-9.58;100.00;99967.22;5090590;28;20216;-81
2023/12/04 07:33:04;;;;;;;7.27;4.87;;;;;;;-9.43;100.00;99961.16;5073381;28;20188;-82
2023/12/04 07:35:34;;;;;;;9.03;5.27;;;;;;;-9.29;100.00;99976.81;5090515;28;20218;-82
2023/12/04 07:38:00;;;;;;;7.67;5.40;;;;;;;-9.24;100.00;99959.22;5072166;28;20200;-82
2023/12/04 07:40:29;;;;;;;10.27;6.60;;;;;;;-9.08;100.00;99966.94;5071078;28;20260;-82
2023/12/04 07:42:57;;;;;;;12.43;7.30;;;;;;;-8.97;100.00;99957.63;5086967;28;20196;-82
2023/12/04 07:45:27;;;;;;;14.33;8.00;;;;;;;-8.79;100.00;99955.72;5071029;28;20212;-81
2023/12/04 07:47:55;;;;;;;16.60;8.23;;;;;;;-8.77;100.00;99958.22;5070420;28;20192;-82
2023/12/04 07:50:27;;;;;;;15.60;9.07;;;;;;;-8.72;100.00;99958.78;5102578;28;20215;-82
2023/12/04 07:52:54;;;;;;;15.53;8.37;;;;;;;-8.72;100.00;99946.63;5103554;28;20223;-82
2023/12/04 07:55:22;;;;;;;14.13;8.60;;;;;;;-8.60;100.00;99948.50;5070471;28;20200;-81
2023/12/04 07:57:50;;;;;;;15.17;8.97;;;;;;;-8.47;100.00;99946.00;5070997;28;20200;-81
2023/12/04 08:00:22;;;;;;;16.67;9.40;;;;;;;-8.39;100.00;99951.56;5103685;28;20199;-82
2023/12/04 08:02:53;;;;;;;17.67;9.37;;;;;;;-8.32;100.00;99946.84;5088263;28;20216;-81
2023/12/04 08:05:23;;;;;;;16.13;9.27;;;;;;;-8.24;100.00;99948.00;5073491;28;20214;-82
2023/12/04 08:07:50;;;;;;;15.97;9.20;;;;;;;-8.25;100.00;99929.91;5071325;28;20195;-82
2023/12/04 08:10:19;;;;;;;17.83;10.33;;;;;;;-8.25;100.00;99925.53;5089145;28;20753;-82
2023/12/04 08:12:51;;;;;;;18.77;10.37;;;;;;;-8.18;100.00;99920.81;5089758;28;20269;-82
2023/12/04 08:15:18;;;;;;;18.47;9.90;;;;;;;-8.15;100.00;99920.63;5089221;28;20208;-81
2023/12/04 08:17:46;;;;;;;20.20;10.50;;;;;;;-8.11;100.00;99927.28;5091197;28;20196;-81
2023/12/04 08:20:22;;;;;;;16.40;9.83;;;;;;;-8.07;100.00;99919.19;5078014;28;20218;-81
2023/12/04 08:23:06;;;;;;;20.17;10.50;;;;;;;-8.01;100.00;99913.63;5081984;28;20249;-81
2023/12/04 08:25:36;;;;;;;18.17;10.80;;;;;;;-7.84;100.00;99907.38;5111468;28;20227;-81
2023/12/04 08:28:17;;;;;;;18.70;10.53;;;;;;;-7.69;100.00;99909.00;5111084;28;20680;-81
2023/12/04 08:30:44;;;;;;;20.47;11.00;;;;;;;-7.93;100.00;99907.94;5077192;28;20276;-82
2023/12/04 08:33:11;;;;;;;18.33;10.37;;;;;;;-7.94;100.00;99895.06;5076900;28;20214;-81
2023/12/04 08:35:40;;;;;;;17.50;10.57;;;;;;;-7.84;100.00;99902.19;5078298;28;20207;-81
2023/12/04 08:38:09;;;;;;;25.13;11.23;;;;;;;-7.75;100.00;99896.41;5095175;28;20196;-83
2023/12/04 08:40:39;;;;;;;18.73;11.20;;;;;;;-7.69;100.00;99900.34;5110973;28;20248;-82
2023/12/04 08:43:07;;;;;;;24.73;12.10;;;;;;;-7.55;100.00;99884.69;5093566;28;20181;-81
2023/12/04 08:45:37;;;;;;;19.27;11.43;;;;;;;-7.47;100.00;99894.63;5093583;28;20214;-82
2023/12/04 08:48:05;;;;;;;17.80;10.60;;;;;;;-7.31;100.00;99893.50;5093704;28;20211;-81
2023/12/04 08:50:32;;;;;;;21.60;11.57;;;;;;;-7.26;100.00;99894.03;5094580;28;20192;-82
2023/12/04 08:52:59;;;;;;;20.37;11.50;;;;;;;-7.19;100.00;99884.91;5078861;28;20237;-81
2023/12/04 08:55:29;;;;;;;20.67;12.50;;;;;;;-7.23;100.00;99891.22;5079613;28;20196;-82
2023/12/04 08:57:57;;;;;;;18.33;11.30;;;;;;;-7.10;100.00;99880.84;5107021;28;20193;-81
2023/12/04 09:00:25;;;;;;;22.27;12.77;;;;;;;-7.05;100.00;99875.34;5104689;28;20678;-81
2023/12/04 09:02:53;;;;;;;19.60;11.80;;;;;;;-7.05;100.00;99867.53;5087965;28;20196;-81
2023/12/04 09:05:34;;;;;;;20.20;11.70;;;;;;;-7.04;100.00;99869.16;5089936;28;20278;-81
2023/12/04 09:08:01;;;;;;;22.70;12.97;;;;;;;-6.99;100.00;99864.47;5104372;28;20224;-83
2023/12/04 09:10:48;;;;;;;18.47;11.53;;;;;;;-6.95;100.00;99865.97;5089366;28;20215;-82
2023/12/04 09:13:38;;;;;;;20.10;11.70;;;;;;;-6.95;100.00;99853.75;5100585;28;20196;-81
2023/12/04 09:16:08;;;;;;;19.17;12.60;;;;;;;-6.85;100.00;99851.34;5090166;28;20284;-82
2023/12/04 09:18:35;;;;;;;19.20;11.83;;;;;;;-6.78;100.00;99845.66;5107079;28;20200;-81
2023/12/04 09:21:04;;;;;;;17.57;11.27;;;;;;;-6.90;100.00;99840.41;5079079;28;20200;-81
2023/12/04 09:23:31;;;;;;;23.17;12.00;;;;;;;-6.73;100.00;99830.53;5092315;28;20240;-82
2023/12/04 09:25:59;;;;;;;21.97;13.03;;;;;;;-6.69;100.00;99831.16;5078174;28;20350;-83
2023/12/04 09:28:28;;;;;;;21.90;13.23;;;;;;;-6.64;100.00;99828.22;5093969;28;20265;-82
2023/12/04 09:30:55;;;;;;;17.37;12.13;;;;;;;-6.57;100.00;99814.66;5079551;28;20216;-83
2023/12/04 09:33:21;;;;;;;19.93;13.37;;;;;;;-6.56;100.00;99816.31;5089181;28;20199;-81
2023/12/04 09:35:48;;;;;;;19.27;12.20;;;;;;;-6.43;100.00;99805.84;5088514;28;20196;-82
2023/12/04 09:38:16;;;;;;;23.53;14.37;;;;;;;-6.34;100.00;99800.81;5064828;28;20197;-85
2023/12/04 09:40:45;;;;;;;22.33;14.10;;;;;;;-6.26;100.00;99800.31;5100156;28;20209;-85
2023/12/04 09:43:13;;;;;;;21.80;13.43;;;;;;;-6.35;100.00;99783.53;5107970;28;20233;-83
2023/12/04 09:45:40;;;;;;;22.33;13.60;;;;;;;-6.18;100.00;99781.50;5097168;28;20209;-82
2023/12/04 09:48:09;;;;;;;23.13;14.50;;;;;;;-6.16;100.00;99774.41;5089129;28;20298;-83
2023/12/04 09:50:37;;;;;;;25.93;15.43;;;;;;;-6.05;100.00;99769.22;5085039;28;20211;-85
2023/12/04 09:53:06;;;;;;;24.37;15.20;;;;;;;-6.07;100.00;99771.13;5087499;28;20231;-83
2023/12/04 09:55:33;;;;;;;22.07;14.20;;;;;;;-5.97;100.00;99770.31;5089657;28;20183;-85
2023/12/04 09:58:00;;;;;;;22.23;14.37;;;;;;;-6.07;100.00;99755.47;5108726;28;20211;-82
2023/12/04 10:00:27;;;;;;;23.23;14.43;;;;;;;-5.88;100.00;99748.78;5075444;28;20241;-86
2023/12/04 10:02:55;;;;;;;21.57;13.60;;;;;;;-5.86;100.00;99749.47;5066967;28;20196;-83
2023/12/04 10:05:22;;;;;;;22.13;14.47;;;;;;;-5.92;100.00;99738.69;5076988;28;20199;-84
2023/12/04 10:07:51;;;;;;;21.10;14.10;;;;;;;-5.92;100.00;99730.84;5070884;28;20202;-85
2023/12/04 10:10:19;;;;;;;19.77;13.07;;;;;;;-5.82;100.00;99727.44;5079163;28;20223;-85
2023/12/04 10:12:46;;;;;;;19.43;12.77;;;;;;;-5.95;100.00;99715.44;5086705;28;20229;-85
2023/12/04 10:15:12;;;;;;;21.87;13.87;;;;;;;-5.86;100.00;99709.50;5091256;28;20211;-83
2023/12/04 10:17:41;;;;;;;18.97;12.53;;;;;;;-5.69;100.00;99703.03;5079553;28;20196;-84
2023/12/04 10:20:11;;;;;;;20.57;13.73;;;;;;;-5.51;100.00;99694.66;5084920;28;20196;-82
2023/12/04 10:22:39;;;;;;;20.37;13.40;;;;;;;-5.43;100.00;99681.00;5067246;28;20195;-84
2023/12/04 10:25:17;;;;;;;22.27;12.83;;;;;;;-5.21;100.00;99669.72;5077932;28;20200;-83
2023/12/04 10:27:45;;;;;;;18.70;13.13;;;;;;;-4.90;100.00;99669.81;5107522;28;20206;-84
2023/12/04 10:30:33;;;;;;;19.77;13.00;;;;;;;-4.62;100.00;99663.22;5077044;28;20224;-85
2023/12/04 10:33:05;;;;;;;19.00;13.27;;;;;;;-4.35;100.00;99648.91;5079196;28;20244;-88
2023/12/04 10:35:36;;;;;;;18.80;13.10;;;;;;;-4.08;100.00;99633.56;5095760;28;20210;-86
2023/12/04 10:38:04;;;;;;;19.60;12.37;;;;;;;-3.85;100.00;99623.78;5103766;28;20191;-86
2023/12/04 10:40:33;;;;;;;19.83;13.47;;;;;;;-3.69;100.00;99629.41;5093149;28;20222;-83
2023/12/04 10:43:17;;;;;;;20.00;13.40;;;;;;;-3.48;100.00;99619.72;5094225;28;20205;-84
2023/12/04 10:45:46;;;;;;;20.77;13.73;;;;;;;-3.48;100.00;99609.25;5092668;28;20711;-86
2023/12/04 10:48:14;;;;;;;18.70;12.73;;;;;;;-3.56;100.00;99603.84;5092536;28;20256;-84
2023/12/04 10:50:52;;;;;;;18.63;13.30;;;;;;;-3.46;100.00;99599.47;5072865;28;20217;-84
2023/12/04 10:53:22;;;;;;;17.10;12.67;;;;;;;-3.35;100.00;99596.75;5101844;28;20296;-85
2023/12/04 10:55:51;;;;;;;17.93;13.10;;;;;;;-3.16;100.00;99578.47;5080990;28;20188;-82
2023/12/04 10:58:19;;;;;;;17.20;12.33;;;;;;;-3.02;100.00;99572.00;5086443;28;20234;-83
2023/12/04 11:00:50;;;;;;;18.10;12.83;;;;;;;-2.90;100.00;99568.34;5077964;28;20184;-82
2023/12/04 11:03:28;;;;;;;18.33;12.57;;;;;;;-2.67;100.00;99555.78;5103632;28;20660;-81
2023/12/04 11:05:57;;;;;;;7.27;5.70;;;;;;;-2.17;100.00;99535.44;5087474;28;20192;-81
2023/12/04 11:08:25;;;;;;;7.17;5.50;;;;;;;-1.65;100.00;99536.69;5074920;28;20252;-80
2023/12/04 11:11:00;;;;;;;8.07;5.33;;;;;;;-1.27;100.00;99525.19;5078950;28;20208;-79
2023/12/04 11:13:31;;;;;;;6.07;5.10;;;;;;;-0.92;100.00;99524.38;5084600;28;20206;-81
2023/12/04 11:16:05;;;;;;;5.93;5.23;;;;;;;-0.71;100.00;99524.09;5081414;28;20193;-84
2023/12/04 11:18:39;;;;;;;5.97;5.10;;;;;;;-0.52;100.00;99519.53;5070399;28;20244;-85
2023/12/04 11:21:08;;;;;;;7.33;5.57;;;;;;;-0.35;100.00;99509.09;5089415;28;20227;-85
2023/12/04 11:23:35;;;;;;;6.87;5.27;;;;;;;-0.27;100.00;99510.00;5085525;28;20191;-84
2023/12/04 11:26:04;;;;;;;5.77;5.20;;;;;;;-0.11;100.00;99499.59;5074442;28;20194;-84
2023/12/04 11:28:36;;;;;;;5.13;4.63;;;;;;;0.02;100.00;99491.25;5075591;28;20197;-83
2023/12/04 11:31:04;;;;;;;5.17;4.27;;;;;;;0.13;100.00;99498.09;5096813;28;20215;-84
2023/12/04 11:33:37;;;;;;;4.73;3.97;;;;;;;0.19;100.00;99490.34;5072087;28;20210;-85